Time;durP1;ratioP1;P1;durP2;ratioP2;P2;SDS_P1;SDS_P2;PMS_P1;PMS_P2;Temp;Humidity;BMP_temperature;BMP_pressure;BME280_temperature;BME280_humidity;BME280_pressure;Samples;Min_cycle;Max_cycle;Signal;HPM_P1;HPM_P2
2023/03/01 00:00:17;;;;;;;28.38;8.70;;;0.80;99.90;;;;;;6199031;23;20008;-76
2023/03/01 00:02:56;;;;;;;13.82;9.52;;;0.30;99.90;;;;;;6221532;23;20047;-76
2023/03/01 00:05:21;;;;;;;14.13;8.68;;;0.90;99.90;;;;;;6193876;23;20017;-76
2023/03/01 00:07:47;;;;;;;16.60;9.50;;;0.30;99.90;;;;;;6194390;23;20103;-75
2023/03/01 00:10:13;;;;;;;12.57;8.80;;;1.50;99.90;;;;;;6194344;23;20064;-76
2023/03/01 00:12:38;;;;;;;16.20;10.10;;;0.30;99.90;;;;;;6194145;23;20009;-76
2023/03/01 00:15:04;;;;;;;15.20;9.73;;;1.70;99.90;;;;;;6193549;23;20177;-76
2023/03/01 00:17:33;;;;;;;13.05;8.77;;;0.30;99.90;;;;;;6167441;23;20031;-75
2023/03/01 00:19:58;;;;;;;16.15;10.05;;;0.30;99.90;;;;;;6192719;23;20329;-77
2023/03/01 00:22:26;;;;;;;16.05;11.15;;;0.40;99.90;;;;;;6143542;23;20013;-77
2023/03/01 00:25:04;;;;;;;18.25;11.57;;;1.20;99.90;;;;;;6170822;23;20017;-74
2023/03/01 00:27:29;;;;;;;21.58;11.82;;;0.50;99.90;;;;;;6192841;23;20315;-76
2023/03/01 00:29:55;;;;;;;19.13;12.05;;;2.00;99.90;;;;;;6193188;23;20008;-76
2023/03/01 00:32:21;;;;;;;16.98;10.85;;;0.50;99.90;;;;;;6168763;23;20017;-76
2023/03/01 00:34:53;;;;;;;20.75;13.00;;;0.60;99.90;;;;;;6144193;23;20263;-75
2023/03/01 00:37:23;;;;;;;17.17;10.60;;;0.60;99.90;;;;;;6168948;23;20020;-76
2023/03/01 00:39:49;;;;;;;46.10;11.93;;;1.60;99.90;;;;;;6193166;23;20569;-75
2023/03/01 00:42:17;;;;;;;49.15;10.73;;;0.20;99.90;;;;;;6194439;23;20040;-76
2023/03/01 00:44:43;;;;;;;107.90;12.90;;;0.20;99.90;;;;;;6169828;23;20044;-75
2023/03/01 00:47:08;;;;;;;15.50;9.27;;;2.20;99.90;;;;;;6168130;23;20012;-76
2023/03/01 00:49:34;;;;;;;17.08;9.40;;;0.10;99.90;;;;;;6192595;23;20016;-76
2023/03/01 00:52:00;;;;;;;15.27;8.73;;;-0.10;99.90;;;;;;6193044;23;20060;-75
2023/03/01 00:54:26;;;;;;;33.78;9.48;;;-0.10;99.90;;;;;;6192858;23;20009;-75
2023/03/01 00:56:51;;;;;;;93.05;12.63;;;0.90;99.90;;;;;;6168134;23;20021;-75
2023/03/01 00:59:20;;;;;;;71.57;10.70;;;-0.10;99.90;;;;;;6192220;23;20195;-76
2023/03/01 01:01:45;;;;;;;51.47;10.82;;;-0.70;99.90;;;;;;6161135;23;20020;-76
2023/03/01 01:04:32;;;;;;;45.60;10.25;;;-0.60;99.90;;;;;;6198472;23;20059;-76
2023/03/01 01:06:57;;;;;;;60.17;9.75;;;1.60;99.90;;;;;;6198828;23;20337;-74
2023/03/01 01:09:23;;;;;;;71.90;10.50;;;-0.60;99.90;;;;;;6173949;23;20008;-76
2023/03/01 01:11:51;;;;;;;59.00;10.00;;;-0.90;99.90;;;;;;6225051;23;20299;-75
2023/03/01 01:14:18;;;;;;;46.15;9.65;;;1.60;99.90;;;;;;6225166;23;20008;-75
2023/03/01 01:16:53;;;;;;;38.60;10.30;;;-0.80;99.90;;;;;;6224929;23;20083;-76
2023/03/01 01:19:25;;;;;;;35.60;10.10;;;-0.90;99.90;;;;;;6198520;23;20011;-76
2023/03/01 01:29:43;;;;;;;19.45;8.68;;;-2.60;99.90;;;;;;5994756;23;20059;-76
2023/03/01 01:32:09;;;;;;;15.70;9.40;;;1.30;99.90;;;;;;6224304;23;20020;-75
2023/03/01 01:34:34;;;;;;;49.97;9.63;;;0.90;99.90;;;;;;6200879;23;20013;-75
2023/03/01 01:37:02;;;;;;;70.72;10.98;;;-1.10;99.90;;;;;;6150911;23;20075;-76
2023/03/01 01:39:28;;;;;;;77.60;11.93;;;-1.00;99.90;;;;;;6199877;23;20044;-75
2023/03/01 01:41:56;;;;;;;69.60;10.55;;;0.60;99.90;;;;;;6198933;23;20054;-75
2023/03/01 01:48:00;;;;;;;63.60;10.40;;;-1.10;99.90;;;;;;6159111;23;20020;-75
2023/03/01 01:50:33;;;;;;;64.78;10.75;;;-1.30;99.90;;;;;;6134257;23;20090;-75
2023/03/01 01:53:16;;;;;;;88.65;11.57;;;0.30;99.90;;;;;;6214340;23;20015;-76
2023/03/01 01:55:45;;;;;;;;;;;-1.30;99.90;;;;;;6201972;23;20012;-76
2023/03/01 01:58:14;;;;;;;35.60;9.68;;;-1.20;99.90;;;;;;6225762;23;19915;-74
2023/03/01 02:00:40;;;;;;;20.80;9.52;;;0.00;99.90;;;;;;6200092;23;20020;-75
2023/03/01 02:03:28;;;;;;;63.40;8.95;;;-1.10;99.90;;;;;;6225932;23;20099;-75
2023/03/01 02:06:07;;;;;;;58.40;9.27;;;-0.90;99.90;;;;;;6226207;23;20550;-75
2023/03/01 02:08:37;;;;;;;35.65;8.85;;;-0.90;99.90;;;;;;6225488;23;20063;-75
2023/03/01 02:11:06;;;;;;;82.20;10.38;;;-1.00;99.90;;;;;;6199914;23;20004;-75
2023/03/01 02:13:33;;;;;;;29.05;7.63;;;-1.00;99.90;;;;;;6200830;23;20086;-75
2023/03/01 02:16:02;;;;;;;34.25;8.35;;;-0.90;99.90;;;;;;6201017;23;20175;-75
2023/03/01 02:18:28;;;;;;;143.32;12.00;;;-0.90;99.90;;;;;;6176052;23;20303;-75
2023/03/01 02:21:14;;;;;;;78.32;9.75;;;-0.90;99.90;;;;;;6199957;23;20019;-75
2023/03/01 02:23:40;;;;;;;85.65;10.00;;;-0.90;99.90;;;;;;6224968;23;20259;-75
2023/03/01 02:26:22;;;;;;;106.30;10.50;;;-0.90;99.90;;;;;;6200551;23;20016;-75
2023/03/01 02:28:50;;;;;;;105.32;11.32;;;0.40;99.90;;;;;;6225507;23;20035;-75
2023/03/01 02:34:05;;;;;;;109.72;16.90;;;-1.40;99.90;;;;;;6224889;23;20062;-76
2023/03/01 02:37:04;;;;;;;95.13;11.40;;;-1.30;99.90;;;;;;6200509;23;20043;-76
2023/03/01 02:39:41;;;;;;;60.47;9.35;;;-1.40;99.90;;;;;;6199968;23;20015;-75
2023/03/01 02:42:12;;;;;;;49.90;8.63;;;0.20;99.90;;;;;;6199807;23;20027;-76
2023/03/01 02:44:38;;;;;;;84.57;10.00;;;-1.60;99.90;;;;;;6225656;23;20011;-75
2023/03/01 02:47:05;;;;;;;71.97;9.70;;;-1.40;99.90;;;;;;6176208;23;20151;-75
2023/03/01 02:49:35;;;;;;;46.10;9.15;;;-1.40;99.90;;;;;;6201030;23;20020;-75
2023/03/01 02:52:25;;;;;;;16.67;8.65;;;-0.10;99.90;;;;;;6199894;23;20008;-75
2023/03/01 02:55:09;;;;;;;19.70;8.02;;;-1.40;99.90;;;;;;6199517;23;20012;-75
2023/03/01 02:57:37;;;;;;;12.70;7.68;;;-1.40;99.90;;;;;;6200064;23;20012;-75
2023/03/01 03:00:19;;;;;;;16.33;8.05;;;0.70;99.90;;;;;;6174618;23;20171;-75
2023/03/01 03:02:50;;;;;;;29.50;7.97;;;-1.40;99.90;;;;;;6172759;23;20103;-75
2023/03/01 03:05:18;;;;;;;20.23;7.47;;;0.10;99.90;;;;;;6170832;23;20021;-75
2023/03/01 03:07:46;;;;;;;11.73;7.47;;;-1.50;99.90;;;;;;6194961;23;20016;-76
2023/03/01 03:10:19;;;;;;;12.02;7.93;;;1.10;99.90;;;;;;6170425;23;20036;-75
2023/03/01 03:12:48;;;;;;;12.32;7.22;;;-1.30;99.90;;;;;;6194857;23;20055;-76
2023/03/01 03:15:14;;;;;;;30.92;8.55;;;0.90;99.90;;;;;;6195983;23;20028;-78
2023/03/01 03:17:42;;;;;;;26.85;8.63;;;-1.50;99.90;;;;;;6145756;23;20020;-77
2023/03/01 03:20:11;;;;;;;21.48;7.95;;;-1.50;99.90;;;;;;6170276;23;20343;-76
2023/03/01 03:22:40;;;;;;;12.23;7.22;;;-1.50;99.90;;;;;;6194343;23;20069;-75
2023/03/01 03:25:11;;;;;;;13.38;8.05;;;-0.50;99.90;;;;;;6145507;23;20020;-76
2023/03/01 03:27:38;;;;;;;13.48;8.10;;;-0.70;99.90;;;;;;6169272;23;20008;-75
2023/03/01 03:30:11;;;;;;;26.67;9.02;;;0.10;99.90;;;;;;6170635;23;20008;-75
2023/03/01 03:32:41;;;;;;;22.60;9.05;;;-1.50;99.90;;;;;;6169443;23;20020;-75
2023/03/01 03:35:12;;;;;;;18.65;9.13;;;-1.50;99.90;;;;;;6170219;23;20062;-75
2023/03/01 03:40:26;;;;;;;13.40;8.30;;;-0.40;99.90;;;;;;6174454;23;20023;-75
2023/03/01 03:42:52;;;;;;;12.68;7.60;;;-0.60;99.90;;;;;;6169764;23;20094;-75
2023/03/01 03:45:18;;;;;;;15.10;9.77;;;0.80;99.90;;;;;;6195290;23;20373;-75
2023/03/01 03:47:48;;;;;;;14.73;8.45;;;-1.50;99.90;;;;;;6169280;23;20024;-75
2023/03/01 03:50:15;;;;;;;13.80;8.18;;;-1.50;99.90;;;;;;6169095;23;20086;-75
2023/03/01 03:52:41;;;;;;;17.17;8.95;;;-1.50;99.90;;;;;;6194760;23;20055;-75
2023/03/01 03:55:09;;;;;;;13.43;8.98;;;-1.40;99.90;;;;;;6170267;23;20021;-75
2023/03/01 03:57:35;;;;;;;14.82;9.45;;;-1.20;99.90;;;;;;6194406;23;20064;-76
2023/03/01 04:00:14;;;;;;;13.27;8.35;;;0.60;99.90;;;;;;6120384;23;20023;-76
2023/03/01 04:02:44;;;;;;;12.05;8.23;;;-1.50;99.90;;;;;;6170990;23;20180;-76
2023/03/01 04:05:12;;;;;;;13.57;9.30;;;-1.30;99.90;;;;;;6198003;23;20016;-75
2023/03/01 04:07:38;;;;;;;12.73;9.02;;;-1.30;99.90;;;;;;6223557;23;20016;-75
2023/03/01 04:10:06;;;;;;;12.52;7.90;;;-1.50;99.90;;;;;;6223335;23;20073;-75
2023/03/01 04:12:36;;;;;;;14.75;9.20;;;-1.50;99.90;;;;;;6198609;23;20090;-78
2023/03/01 04:15:12;;;;;;;12.68;8.43;;;-1.60;99.90;;;;;;6199188;23;20039;-78
2023/03/01 04:21:37;;;;;;;11.30;8.88;;;-1.10;99.90;;;;;;6123477;23;20017;-78
2023/03/01 04:24:04;;;;;;;19.08;9.02;;;-1.40;99.90;;;;;;6224471;23;20027;-77
2023/03/01 04:26:30;;;;;;;27.25;8.30;;;-1.60;99.90;;;;;;6200398;23;20019;-78
2023/03/01 04:28:55;;;;;;;24.35;8.35;;;-1.60;99.90;;;;;;6223287;23;20008;-76
2023/03/01 04:31:21;;;;;;;56.47;11.85;;;-1.80;99.90;;;;;;6200438;23;20016;-77
2023/03/01 04:33:52;;;;;;;52.88;10.48;;;0.30;99.90;;;;;;6198787;23;20016;-77
2023/03/01 04:36:20;;;;;;;94.03;11.15;;;-1.80;99.90;;;;;;6199251;23;20012;-77
2023/03/01 04:38:49;;;;;;;23.48;8.65;;;-1.80;99.90;;;;;;6224475;23;20012;-77
2023/03/01 04:41:19;;;;;;;28.63;9.10;;;-2.10;99.90;;;;;;6200312;23;20012;-77
2023/03/01 04:43:48;;;;;;;46.45;11.30;;;-2.30;99.90;;;;;;6200076;23;20082;-77
2023/03/01 04:46:16;;;;;;;27.67;9.32;;;0.30;99.90;;;;;;6177753;23;20012;-77
2023/03/01 04:48:44;;;;;;;18.27;9.02;;;-2.10;99.90;;;;;;6225040;23;20020;-77
2023/03/01 04:51:13;;;;;;;25.77;8.57;;;-2.00;99.90;;;;;;6201751;23;20256;-77
2023/03/01 04:57:10;;;;;;;36.80;11.50;;;0.20;99.90;;;;;;6238598;23;20061;-77
2023/03/01 04:59:35;;;;;;;83.10;11.25;;;0.30;99.90;;;;;;6201810;23;20067;-76
2023/03/01 05:02:01;;;;;;;112.28;13.20;;;-2.40;99.90;;;;;;6200792;23;20356;-78
2023/03/01 05:04:53;;;;;;;91.68;11.68;;;-2.10;99.90;;;;;;6226933;23;20271;-79
2023/03/01 05:07:38;;;;;;;217.13;16.75;;;0.50;99.90;;;;;;6202627;23;20020;-78
2023/03/01 05:10:32;;;;;;;;;;;0.10;99.90;;;;;;6202033;23;20051;-79
2023/03/01 05:13:30;;;;;;;136.75;15.85;;;-2.90;99.90;;;;;;6200889;23;19916;-77
2023/03/01 05:16:05;;;;;;;99.95;13.57;;;-2.00;99.90;;;;;;6213259;23;20512;-78
2023/03/01 05:18:34;;;;;;;102.03;11.93;;;-2.40;99.90;;;;;;6202085;23;20012;-78
2023/03/01 05:21:13;;;;;;;121.07;11.82;;;-0.10;99.90;;;;;;6225695;23;20012;-79
2023/03/01 05:23:47;;;;;;;99.75;11.80;;;-1.60;99.90;;;;;;6201879;23;20318;-80
2023/03/01 05:29:31;;;;;;;90.07;11.65;;;-2.50;99.90;;;;;;6098543;23;20012;-78
2023/03/01 05:32:02;;;;;;;76.97;12.90;;;-2.30;99.90;;;;;;6224921;23;20083;-78
2023/03/01 05:34:35;;;;;;;136.27;11.73;;;0.30;99.90;;;;;;6201234;23;20108;-78
2023/03/01 05:37:02;;;;;;;45.30;9.82;;;-2.30;99.90;;;;;;6174515;23;20008;-76
2023/03/01 05:39:29;;;;;;;73.65;11.00;;;-2.30;99.90;;;;;;6176043;23;20374;-77
2023/03/01 05:42:00;;;;;;;118.93;12.50;;;-2.50;99.90;;;;;;6225955;23;20105;-77
2023/03/01 05:44:27;;;;;;;65.47;11.23;;;-2.50;99.90;;;;;;6225782;23;20042;-76
2023/03/01 05:46:54;;;;;;;88.38;11.30;;;-2.50;99.90;;;;;;6225032;23;20012;-76
2023/03/01 05:49:25;;;;;;;127.03;14.63;;;-2.60;99.90;;;;;;6201072;23;20098;-77
2023/03/01 05:51:52;;;;;;;84.57;10.75;;;-2.50;99.90;;;;;;6225397;23;20075;-75
2023/03/01 05:54:24;;;;;;;110.78;12.02;;;-2.50;99.90;;;;;;6200264;23;20015;-76
2023/03/01 05:56:56;;;;;;;70.75;11.27;;;-1.90;99.90;;;;;;6200480;23;20274;-76
2023/03/01 05:59:22;;;;;;;116.47;13.43;;;-2.20;99.90;;;;;;6152194;23;20012;-76
2023/03/01 06:01:47;;;;;;;82.35;11.85;;;-2.30;99.90;;;;;;6222386;23;20220;-77
2023/03/01 06:04:13;;;;;;;91.47;14.30;;;-2.50;99.90;;;;;;6174944;23;20195;-77
2023/03/01 06:06:39;;;;;;;167.88;17.27;;;-2.30;99.90;;;;;;6201183;23;20047;-76
2023/03/01 06:09:07;;;;;;;138.32;14.88;;;-2.40;99.90;;;;;;6175168;23;20008;-76
2023/03/01 06:11:34;;;;;;;139.40;15.35;;;-0.70;99.90;;;;;;6201319;23;20015;-75
2023/03/01 06:14:00;;;;;;;54.85;10.85;;;-2.30;99.90;;;;;;6199796;23;20310;-76
2023/03/01 06:16:26;;;;;;;123.47;13.50;;;-2.40;99.90;;;;;;6225650;23;20012;-76
2023/03/01 06:18:51;;;;;;;97.07;11.70;;;-2.40;99.90;;;;;;6199110;23;20020;-76
2023/03/01 06:21:17;;;;;;;72.25;10.80;;;-2.60;99.90;;;;;;6175739;23;20310;-76
2023/03/01 06:23:46;;;;;;;31.83;10.40;;;-2.50;99.90;;;;;;6200197;23;20019;-77
2023/03/01 06:26:11;;;;;;;48.65;10.38;;;-0.40;99.90;;;;;;6199417;23;20020;-76
2023/03/01 06:28:37;;;;;;;16.70;7.95;;;-2.60;99.90;;;;;;6224590;23;20023;-75
2023/03/01 06:31:03;;;;;;;24.95;8.55;;;-2.60;99.90;;;;;;6224920;23;20039;-77
2023/03/01 06:33:29;;;;;;;20.90;7.88;;;-2.60;99.90;;;;;;6175559;23;20012;-78
2023/03/01 06:36:00;;;;;;;10.02;7.88;;;-2.50;99.90;;;;;;6198889;23;20026;-77
2023/03/01 06:38:26;;;;;;;10.13;7.75;;;-2.60;99.90;;;;;;6200193;23;20259;-77
2023/03/01 06:40:54;;;;;;;10.90;8.38;;;-2.50;99.90;;;;;;6199328;23;20012;-79
2023/03/01 06:43:25;;;;;;;9.65;7.63;;;-2.40;99.90;;;;;;6224732;23;20008;-77
2023/03/01 06:45:51;;;;;;;8.63;6.88;;;-0.30;99.90;;;;;;6148997;23;20325;-77
2023/03/01 06:48:17;;;;;;;9.93;7.35;;;-1.90;99.90;;;;;;6174937;23;20067;-76
2023/03/01 06:50:43;;;;;;;10.23;8.55;;;-2.40;99.90;;;;;;6198693;23;20221;-78
2023/03/01 06:53:08;;;;;;;10.43;8.57;;;-0.40;99.90;;;;;;6199672;23;20008;-76
2023/03/01 06:55:34;;;;;;;10.68;8.63;;;-2.30;99.90;;;;;;6224482;23;20020;-77
2023/03/01 06:58:01;;;;;;;10.43;7.97;;;-1.70;99.90;;;;;;6199187;23;20038;-76
2023/03/01 07:00:28;;;;;;;10.70;8.38;;;-2.30;99.90;;;;;;6224610;23;20012;-78
2023/03/01 07:02:55;;;;;;;9.55;7.57;;;-2.20;99.90;;;;;;6175308;23;20023;-76
2023/03/01 07:05:20;;;;;;;15.73;10.65;;;-2.10;99.90;;;;;;6200959;23;20039;-76
2023/03/01 07:07:52;;;;;;;17.95;11.40;;;0.10;99.90;;;;;;6199537;23;20067;-78
2023/03/01 07:10:18;;;;;;;18.15;11.55;;;-1.40;99.90;;;;;;6198792;23;20426;-77
2023/03/01 07:17:27;;;;;;;18.35;10.52;;;-1.40;99.90;;;;;;6206034;23;20020;-77
2023/03/01 07:20:58;;;;;;;;;;;;;;;;;;;;;
2023/03/01 07:24:08;;;;;;;12.15;7.90;;;0.50;99.90;;;;;;6251232;23;20035;-78
2023/03/01 07:26:39;;;;;;;11.63;8.05;;;0.00;99.90;;;;;;6199236;23;20066;-78
2023/03/01 07:29:06;;;;;;;12.98;9.25;;;-0.10;99.90;;;;;;6223450;23;20175;-78
2023/03/01 07:31:32;;;;;;;15.23;9.73;;;-0.10;99.90;;;;;;6224414;23;20008;-77
2023/03/01 07:33:58;;;;;;;12.75;9.48;;;0.40;99.90;;;;;;6222828;23;20067;-78
2023/03/01 07:36:25;;;;;;;14.15;10.10;;;2.60;99.90;;;;;;6175332;23;20012;-77
2023/03/01 07:38:50;;;;;;;11.30;9.73;;;0.50;99.90;;;;;;6223455;23;20047;-77
2023/03/01 07:41:16;;;;;;;9.82;7.80;;;0.60;99.90;;;;;;6199596;23;20065;-78
2023/03/01 07:43:45;;;;;;;9.18;7.35;;;0.40;99.90;;;;;;6198881;23;20194;-78
2023/03/01 07:46:11;;;;;;;9.77;7.38;;;2.50;99.90;;;;;;6199573;23;20040;-76
2023/03/01 07:48:36;;;;;;;9.10;6.95;;;2.20;99.90;;;;;;6174979;23;20074;-75
2023/03/01 07:51:04;;;;;;;9.93;6.88;;;2.50;99.90;;;;;;6197630;23;20260;-75
2023/03/01 07:53:31;;;;;;;10.10;7.05;;;0.70;99.90;;;;;;6223958;23;20251;-77
2023/03/01 07:56:11;;;;;;;11.30;7.78;;;0.90;99.90;;;;;;6196863;23;20047;-80
2023/03/01 07:58:39;;;;;;;15.50;9.48;;;1.00;99.90;;;;;;6196856;23;20039;-79
2023/03/01 08:01:06;;;;;;;17.50;9.50;;;1.20;99.90;;;;;;6194885;23;20023;-77
2023/03/01 08:03:33;;;;;;;12.23;8.90;;;1.20;99.90;;;;;;6198649;23;20377;-78
2023/03/01 08:06:18;;;;;;;12.45;8.02;;;1.30;99.90;;;;;;6196939;23;20031;-77
2023/03/01 08:08:44;;;;;;;23.33;10.90;;;3.00;99.90;;;;;;6174587;23;20234;-78
2023/03/01 08:11:14;;;;;;;16.88;10.52;;;1.50;99.90;;;;;;6171442;23;20016;-74
2023/03/01 08:13:43;;;;;;;15.70;10.80;;;1.50;99.90;;;;;;6197848;23;20063;-76
2023/03/01 08:16:12;;;;;;;10.45;6.65;;;1.60;99.90;;;;;;6220942;23;20024;-75
2023/03/01 08:18:42;;;;;;;8.40;5.68;;;1.70;99.90;;;;;;6222266;23;20016;-76
2023/03/01 08:21:13;;;;;;;10.73;8.15;;;2.00;99.90;;;;;;6174425;23;20027;-76
2023/03/01 08:23:42;;;;;;;11.18;8.40;;;2.20;99.90;;;;;;6200944;23;20067;-76
2023/03/01 08:26:20;;;;;;;10.05;8.25;;;2.20;99.90;;;;;;6200022;23;20027;-76
2023/03/01 08:28:48;;;;;;;9.85;7.55;;;4.50;99.90;;;;;;6174127;23;20050;-79
2023/03/01 08:31:20;;;;;;;10.95;7.38;;;2.50;99.90;;;;;;6198438;23;20016;-80
2023/03/01 08:33:54;;;;;;;9.68;6.75;;;2.80;99.90;;;;;;6199934;23;20008;-75
2023/03/01 08:36:21;;;;;;;11.98;7.85;;;4.70;99.90;;;;;;6224240;23;20019;-74
2023/03/01 08:38:47;;;;;;;9.70;6.68;;;3.10;99.90;;;;;;6224477;23;20087;-76
2023/03/01 08:41:14;;;;;;;13.82;7.55;;;3.80;99.90;;;;;;6223110;23;20012;-74
2023/03/01 08:44:04;;;;;;;10.40;7.82;;;3.30;99.90;;;;;;6199051;23;20020;-74
2023/03/01 08:46:51;;;;;;;12.27;8.27;;;3.60;99.90;;;;;;6197773;23;20214;-77
2023/03/01 08:49:19;;;;;;;11.15;8.65;;;3.50;99.90;;;;;;6175460;23;20320;-76
2023/03/01 08:52:44;;;;;;;16.05;9.63;;;3.50;99.90;;;;;;6224334;23;20394;-74
2023/03/01 08:55:36;;;;;;;;;;;;;;;;;;;;;
2023/03/01 08:58:22;;;;;;;21.02;10.70;;;4.50;99.90;;;;;;6163359;23;20019;-75
2023/03/01 09:00:48;;;;;;;18.65;11.82;;;4.70;99.90;;;;;;6197866;23;20067;-74
2023/03/01 09:03:14;;;;;;;23.60;13.10;;;5.00;99.90;;;;;;6167597;23;20091;-75
2023/03/01 09:05:40;;;;;;;27.92;15.32;;;5.20;99.90;;;;;;6142813;23;20021;-76
2023/03/01 09:08:08;;;;;;;23.23;13.05;;;5.30;99.90;;;;;;6194130;23;20183;-77
2023/03/01 09:10:37;;;;;;;28.25;14.93;;;5.40;99.90;;;;;;6170911;23;20009;-77
2023/03/01 09:13:03;;;;;;;25.10;15.35;;;5.50;99.90;;;;;;6193697;23;20602;-75
2023/03/01 09:15:29;;;;;;;27.77;16.73;;;5.40;99.90;;;;;;6170224;23;20012;-75
2023/03/01 09:18:00;;;;;;;29.00;19.02;;;5.00;99.90;;;;;;6169013;23;20012;-75
2023/03/01 09:20:56;;;;;;;26.00;17.75;;;5.90;99.90;;;;;;6194902;23;20018;-76
2023/03/01 09:23:36;;;;;;;23.15;16.25;;;5.60;99.90;;;;;;6155633;23;20279;-76
2023/03/01 09:26:02;;;;;;;22.98;15.48;;;6.10;99.90;;;;;;6148333;23;20047;-76
2023/03/01 09:28:45;;;;;;;20.27;14.25;;;6.30;99.90;;;;;;6146250;23;20017;-77
2023/03/01 09:31:14;;;;;;;19.65;12.98;;;6.80;99.90;;;;;;6169654;23;20192;-75
2023/03/01 09:33:45;;;;;;;21.92;15.73;;;6.40;99.90;;;;;;6145588;23;20016;-76
2023/03/01 09:40:51;;;;;;;22.35;15.45;;;6.70;99.90;;;;;;6105082;23;20085;-76
2023/03/01 09:43:53;;;;;;;23.08;15.10;;;7.40;99.90;;;;;;5985513;24;20068;-76
2023/03/01 10:03:04;;;;;;;;;;;;;;;;;;;;;
2023/03/01 11:15:05;;;;;;;;;;;;;;;;;;;;;
2023/03/01 11:56:37;;;;;;;20.20;14.90;;;8.90;99.90;;;;;;5766897;24;20262;-76
2023/03/01 11:59:37;;;;;;;13.90;9.90;;;8.90;99.90;;;;;;5728764;24;20211;-76
2023/03/01 12:02:47;;;;;;;13.30;10.73;;;9.10;99.90;;;;;;5830226;24;20017;-75
2023/03/01 12:05:43;;;;;;;14.32;10.98;;;9.20;99.90;;;;;;6016126;23;20019;-76
2023/03/01 12:08:42;;;;;;;15.07;10.35;;;8.90;99.90;;;;;;6038522;23;20022;-76
2023/03/01 12:11:23;;;;;;;12.73;9.95;;;8.90;99.90;;;;;;6016364;23;20222;-75
2023/03/01 12:14:14;;;;;;;11.27;9.13;;;9.00;99.90;;;;;;6017535;23;20019;-75
2023/03/01 12:16:49;;;;;;;13.18;10.43;;;9.00;99.90;;;;;;6017539;23;20468;-75
2023/03/01 12:20:17;;;;;;;;;;;;;;;;;;;;;
2023/03/01 12:22:53;;;;;;;16.00;10.32;;;8.70;99.90;;;;;;6016674;23;20337;-76
2023/03/01 12:25:37;;;;;;;11.10;9.18;;;8.90;99.90;;;;;;6040226;23;20026;-76
2023/03/01 12:28:21;;;;;;;12.38;8.70;;;9.00;99.90;;;;;;6077926;23;20271;-74
2023/03/01 12:31:11;;;;;;;13.57;9.32;;;9.10;99.90;;;;;;6123678;23;20013;-74
2023/03/01 12:34:26;;;;;;;12.57;8.73;;;8.80;99.90;;;;;;6139155;23;20168;-74
2023/03/01 12:37:10;;;;;;;13.07;10.30;;;9.30;99.90;;;;;;6187296;23;20255;-75
2023/03/01 12:40:13;;;;;;;12.07;9.30;;;9.30;99.90;;;;;;6136613;23;20319;-77
2023/03/01 12:43:06;;;;;;;12.13;8.98;;;9.30;99.90;;;;;;6139790;23;20476;-75
2023/03/01 12:45:44;;;;;;;11.77;8.77;;;9.50;99.90;;;;;;6163665;23;20013;-74
2023/03/01 12:48:51;;;;;;;14.38;8.95;;;9.40;99.90;;;;;;6137104;23;20013;-74
2023/03/01 12:51:24;;;;;;;10.38;7.72;;;9.50;99.90;;;;;;6112577;23;20009;-75
2023/03/01 12:53:53;;;;;;;10.57;8.43;;;9.30;99.90;;;;;;6137135;23;20036;-75
2023/03/01 12:56:26;;;;;;;10.20;8.65;;;9.00;99.90;;;;;;6161612;23;20051;-74
2023/03/01 12:59:00;;;;;;;12.05;8.55;;;8.90;99.90;;;;;;6138354;23;20021;-75
2023/03/01 13:01:57;;;;;;;11.48;8.98;;;8.80;99.90;;;;;;6160264;23;20021;-74
2023/03/01 13:05:23;;;;;;;12.48;9.02;;;10.20;99.90;;;;;;6135073;23;20013;-75
2023/03/01 13:08:34;;;;;;;12.75;8.45;;;8.60;99.90;;;;;;6062544;23;20016;-74
2023/03/01 13:11:25;;;;;;;12.73;8.88;;;8.00;99.90;;;;;;6075317;23;20027;-75
2023/03/01 13:17:05;;;;;;;11.73;8.65;;;8.90;99.90;;;;;;6143399;23;20021;-75
2023/03/01 13:19:39;;;;;;;12.45;9.80;;;8.90;99.90;;;;;;6140349;23;20163;-75
2023/03/01 13:22:26;;;;;;;13.80;9.25;;;8.40;99.90;;;;;;6139124;23;20086;-76
2023/03/01 13:25:11;;;;;;;13.77;9.25;;;8.30;99.90;;;;;;6139231;23;20020;-75
2023/03/01 13:27:40;;;;;;;11.77;8.80;;;8.50;99.90;;;;;;6139244;23;20009;-74
2023/03/01 13:30:34;;;;;;;12.20;8.27;;;8.60;99.90;;;;;;6138726;23;20039;-74
2023/03/01 13:33:28;;;;;;;13.80;9.95;;;8.60;99.90;;;;;;6164073;23;20008;-75
2023/03/01 13:36:06;;;;;;;14.57;8.48;;;8.60;99.90;;;;;;6140102;23;20077;-75
2023/03/01 13:39:30;;;;;;;;;;;;;;;;;;;;;
2023/03/01 13:42:00;;;;;;;11.60;8.70;;;8.50;99.90;;;;;;6070124;23;20019;-74
2023/03/01 13:44:47;;;;;;;11.95;9.00;;;8.40;99.90;;;;;;6022125;23;20015;-74
2023/03/01 13:47:21;;;;;;;13.52;9.40;;;8.40;99.90;;;;;;6162304;23;20236;-75
2023/03/01 13:50:09;;;;;;;13.90;10.57;;;8.60;99.90;;;;;;6138567;23;20129;-75
2023/03/01 13:53:10;;;;;;;14.20;10.27;;;8.50;99.90;;;;;;6138183;23;20016;-74
2023/03/01 13:55:51;;;;;;;13.68;10.48;;;8.70;99.90;;;;;;6137857;23;20332;-73
2023/03/01 13:58:53;;;;;;;13.77;9.50;;;8.50;99.90;;;;;;6160682;23;20047;-74
2023/03/01 14:01:35;;;;;;;12.93;9.75;;;8.40;99.90;;;;;;6139798;23;20079;-75
2023/03/01 14:04:23;;;;;;;14.48;10.57;;;8.50;99.90;;;;;;6139220;23;20327;-76
2023/03/01 14:07:18;;;;;;;13.00;9.13;;;8.40;99.90;;;;;;6139962;23;20052;-74
2023/03/01 14:09:48;;;;;;;14.63;10.80;;;8.60;99.90;;;;;;6159264;23;20055;-75
2023/03/01 14:12:35;;;;;;;17.50;10.95;;;8.30;99.90;;;;;;6167345;23;20017;-76
2023/03/01 14:15:59;;;;;;;15.15;10.80;;;8.60;99.90;;;;;;6193746;23;20009;-75
2023/03/01 14:19:07;;;;;;;13.73;9.55;;;6.80;99.90;;;;;;6196075;23;20008;-74
2023/03/01 14:21:33;;;;;;;18.33;12.13;;;7.40;99.90;;;;;;6178502;23;20199;-75
2023/03/01 14:24:00;;;;;;;15.02;11.32;;;8.70;99.90;;;;;;6222433;23;20014;-78
2023/03/01 14:26:41;;;;;;;14.25;11.27;;;8.50;99.90;;;;;;6174490;23;20012;-76
2023/03/01 14:29:36;;;;;;;15.20;11.25;;;10.50;99.90;;;;;;6199313;23;20016;-76
2023/03/01 14:32:15;;;;;;;15.38;10.90;;;8.70;99.90;;;;;;6197641;23;20073;-75
2023/03/01 14:34:46;;;;;;;16.17;11.75;;;9.00;99.90;;;;;;6199773;23;20062;-76
2023/03/01 14:37:31;;;;;;;16.10;10.82;;;9.30;99.90;;;;;;6197368;23;20019;-76
2023/03/01 14:40:04;;;;;;;15.43;11.35;;;9.10;99.90;;;;;;6198376;23;20035;-76
2023/03/01 14:42:38;;;;;;;15.70;11.07;;;9.00;99.90;;;;;;6197063;23;20202;-76
2023/03/01 14:45:13;;;;;;;15.43;10.80;;;8.80;99.90;;;;;;6224266;23;20043;-73
2023/03/01 14:47:44;;;;;;;14.40;11.52;;;8.70;99.90;;;;;;6175041;23;20047;-76
2023/03/01 14:54:50;;;;;;;15.10;10.90;;;7.50;99.90;;;;;;6126480;23;20012;-77
2023/03/01 14:57:59;;;;;;;17.33;11.13;;;6.80;99.90;;;;;;6079081;23;20014;-74
2023/03/01 15:00:30;;;;;;;16.05;10.77;;;7.00;99.90;;;;;;6102882;23;20316;-74
2023/03/01 15:03:00;;;;;;;13.25;9.50;;;7.80;99.90;;;;;;6180201;23;20075;-74
2023/03/01 15:05:31;;;;;;;14.30;10.32;;;7.90;99.90;;;;;;6223921;23;20067;-75
2023/03/01 15:08:02;;;;;;;14.70;11.00;;;7.80;99.90;;;;;;6172618;23;20187;-75
2023/03/01 15:10:36;;;;;;;15.48;11.52;;;7.80;99.90;;;;;;6220593;23;20016;-76
2023/03/01 15:13:24;;;;;;;16.33;11.98;;;7.80;99.90;;;;;;6197136;23;20024;-75
2023/03/01 15:16:34;;;;;;;16.05;11.00;;;7.80;99.90;;;;;;6199616;23;20012;-76
2023/03/01 15:19:02;;;;;;;16.92;12.00;;;7.90;99.90;;;;;;6204577;23;20047;-75
2023/03/01 15:21:34;;;;;;;16.48;11.50;;;7.70;99.90;;;;;;6222863;23;20124;-76
2023/03/01 15:24:23;;;;;;;15.27;11.02;;;7.70;99.90;;;;;;6221148;23;20498;-76
2023/03/01 15:27:06;;;;;;;15.63;11.80;;;7.60;99.90;;;;;;6197698;23;20016;-75
2023/03/01 15:29:37;;;;;;;17.25;11.75;;;7.60;99.90;;;;;;6222748;23;20019;-77
2023/03/01 15:32:33;;;;;;;15.48;11.32;;;7.60;99.90;;;;;;6196140;23;20152;-75
2023/03/01 15:35:01;;;;;;;18.73;11.73;;;7.60;99.90;;;;;;6197343;23;20012;-75
2023/03/01 15:37:51;;;;;;;15.95;11.55;;;7.50;99.90;;;;;;6196776;23;20330;-75
2023/03/01 15:40:32;;;;;;;16.73;11.90;;;7.70;99.90;;;;;;6223236;23;20183;-74
2023/03/01 15:43:01;;;;;;;16.92;11.45;;;7.60;99.90;;;;;;6196693;23;20020;-75
2023/03/01 15:45:29;;;;;;;15.13;10.90;;;7.50;99.90;;;;;;6197548;23;20027;-74
2023/03/01 15:48:01;;;;;;;17.45;11.32;;;7.50;99.90;;;;;;6198564;23;20091;-76
2023/03/01 15:50:39;;;;;;;16.23;11.32;;;7.50;99.90;;;;;;6223604;23;20356;-74
2023/03/01 15:53:15;;;;;;;19.58;11.90;;;7.40;99.90;;;;;;6196971;23;20065;-76
2023/03/01 15:56:43;;;;;;;;;;;;;;;;;;;;;
2023/03/01 15:59:18;;;;;;;16.13;10.40;;;7.90;99.90;;;;;;6218070;23;20051;-76
2023/03/01 16:01:48;;;;;;;18.98;12.00;;;7.30;99.90;;;;;;6196405;23;20110;-76
2023/03/01 16:04:53;;;;;;;16.38;11.63;;;7.30;99.90;;;;;;6196000;23;20043;-74
2023/03/01 16:07:31;;;;;;;18.08;12.77;;;8.20;99.90;;;;;;6199319;23;20366;-75
2023/03/01 16:10:03;;;;;;;18.30;11.43;;;7.20;99.90;;;;;;6198020;23;20012;-77
2023/03/01 16:12:30;;;;;;;17.88;11.63;;;7.30;99.90;;;;;;6197409;23;20214;-76
2023/03/01 16:14:57;;;;;;;19.15;13.45;;;7.20;99.90;;;;;;6173912;23;20028;-76